Time;durP1;ratioP1;P1;durP2;ratioP2;P2;SDS_P1;SDS_P2;PMS_P1;PMS_P2;Temp;Humidity;BMP_temperature;BMP_pressure;BME280_temperature;BME280_humidity;BME280_pressure;Samples;Min_cycle;Max_cycle;Signal;HPM_P1;HPM_P2
2020/12/05 00:01:54;;;;;;;9.05;7.57;;;4.00;99.90;;;;;;468661;253;27591;-76
2020/12/05 00:03:56;;;;;;;10.18;8.07;;;4.00;99.90;;;;;;464450;253;27572;-76
2020/12/05 00:05:57;;;;;;;10.20;8.32;;;4.00;99.90;;;;;;460932;257;27500;-76
2020/12/05 00:07:58;;;;;;;10.18;7.93;;;3.90;99.90;;;;;;460934;257;28036;-75
2020/12/05 00:09:59;;;;;;;10.38;6.93;;;3.90;99.90;;;;;;460943;257;28118;-76
2020/12/05 00:12:01;;;;;;;9.45;7.62;;;4.00;99.90;;;;;;467731;253;29203;-76
2020/12/05 00:14:02;;;;;;;9.50;8.15;;;4.00;99.90;;;;;;468712;253;27663;-75
2020/12/05 00:16:03;;;;;;;9.25;7.78;;;4.00;99.90;;;;;;468693;253;27574;-76
2020/12/05 00:18:04;;;;;;;9.45;7.70;;;4.00;99.90;;;;;;468224;253;27581;-77
2020/12/05 00:20:06;;;;;;;10.55;7.25;;;4.00;99.90;;;;;;464962;253;27574;-76
2020/12/05 00:22:07;;;;;;;9.60;7.35;;;4.00;99.90;;;;;;466704;253;27570;-77
2020/12/05 00:24:08;;;;;;;10.90;7.93;;;4.00;99.90;;;;;;464295;253;27648;-76
2020/12/05 00:26:09;;;;;;;10.60;7.80;;;4.00;99.90;;;;;;460939;257;27516;-76
2020/12/05 00:28:11;;;;;;;9.40;7.50;;;4.00;99.90;;;;;;461006;257;27628;-76
2020/12/05 00:30:12;;;;;;;10.30;8.10;;;4.00;99.90;;;;;;466255;253;28096;-76
2020/12/05 00:32:13;;;;;;;9.55;7.50;;;4.00;99.90;;;;;;468789;253;28044;-76
2020/12/05 00:34:14;;;;;;;10.77;7.85;;;4.00;99.90;;;;;;468849;253;29054;-75
2020/12/05 00:36:16;;;;;;;8.50;7.10;;;4.00;99.90;;;;;;468843;253;27558;-75
2020/12/05 00:38:17;;;;;;;10.38;7.22;;;4.00;99.90;;;;;;465916;253;27607;-77
2020/12/05 00:40:18;;;;;;;10.73;7.82;;;4.00;99.90;;;;;;464086;253;27530;-76
2020/12/05 00:42:19;;;;;;;8.80;6.97;;;4.00;99.90;;;;;;465813;253;27611;-76
2020/12/05 00:44:21;;;;;;;9.70;7.00;;;4.10;99.90;;;;;;462907;253;27561;-76
2020/12/05 00:46:22;;;;;;;9.35;7.85;;;4.10;99.90;;;;;;468877;253;27545;-75
2020/12/05 00:48:23;;;;;;;10.18;8.27;;;4.10;99.90;;;;;;463773;253;27995;-76
2020/12/05 00:50:24;;;;;;;11.25;8.15;;;4.10;99.90;;;;;;460791;257;27620;-75
2020/12/05 00:52:26;;;;;;;8.35;6.20;;;4.10;99.90;;;;;;460894;257;27672;-77
2020/12/05 00:54:27;;;;;;;10.27;7.65;;;4.10;99.90;;;;;;460948;257;28110;-77
2020/12/05 00:56:28;;;;;;;10.02;7.12;;;4.10;99.90;;;;;;460955;257;28175;-76
2020/12/05 00:58:34;;;;;;;10.00;6.82;;;4.10;99.90;;;;;;460911;257;27520;-76
2020/12/05 01:00:31;;;;;;;9.27;7.32;;;4.10;99.90;;;;;;460623;258;27640;-76
2020/12/05 01:02:32;;;;;;;8.85;6.45;;;4.10;99.90;;;;;;460961;257;27577;-76
2020/12/05 01:04:33;;;;;;;12.57;7.50;;;4.10;99.90;;;;;;460922;257;27599;-76
2020/12/05 01:06:34;;;;;;;9.32;7.40;;;4.10;99.90;;;;;;460937;257;27609;-76
2020/12/05 01:08:39;;;;;;;8.30;6.25;;;4.20;99.90;;;;;;460909;257;27504;-76
2020/12/05 01:10:37;;;;;;;9.13;6.75;;;4.20;99.90;;;;;;460451;258;27521;-75
2020/12/05 01:12:38;;;;;;;7.28;6.05;;;4.20;99.90;;;;;;460762;257;27527;-77
2020/12/05 01:14:39;;;;;;;9.13;7.20;;;4.20;99.90;;;;;;460782;257;27635;-76
2020/12/05 01:16:41;;;;;;;9.45;7.03;;;4.20;99.90;;;;;;460851;257;28079;-75
2020/12/05 01:18:42;;;;;;;10.00;7.45;;;4.20;99.90;;;;;;460897;257;28075;-76
2020/12/05 01:20:43;;;;;;;8.52;7.05;;;4.20;99.90;;;;;;460876;257;27973;-76
2020/12/05 01:22:44;;;;;;;10.50;7.57;;;4.20;99.90;;;;;;460978;257;27612;-76
2020/12/05 01:24:46;;;;;;;8.20;6.47;;;4.20;99.90;;;;;;460950;257;27620;-76
2020/12/05 01:26:47;;;;;;;9.70;7.47;;;4.10;99.90;;;;;;460978;257;27719;-76
2020/12/05 01:28:48;;;;;;;9.35;6.85;;;4.20;99.90;;;;;;460980;257;27580;-76
2020/12/05 01:30:49;;;;;;;11.95;6.40;;;4.10;99.90;;;;;;460955;258;27508;-76
2020/12/05 01:32:51;;;;;;;10.05;7.50;;;4.10;99.90;;;;;;460959;257;27615;-77
2020/12/05 01:34:52;;;;;;;8.20;6.87;;;4.10;99.90;;;;;;460931;257;27606;-76
2020/12/05 01:36:53;;;;;;;8.80;6.62;;;4.10;99.90;;;;;;460942;257;27597;-76
2020/12/05 01:38:54;;;;;;;8.18;6.32;;;4.10;99.90;;;;;;460969;257;27993;-76
2020/12/05 01:40:59;;;;;;;8.35;6.72;;;4.10;99.90;;;;;;460924;257;28003;-76
2020/12/05 01:42:57;;;;;;;8.15;6.47;;;4.10;99.90;;;;;;460728;258;28056;-76
2020/12/05 01:44:58;;;;;;;8.52;6.72;;;4.10;99.90;;;;;;460900;257;28107;-75
2020/12/05 01:46:59;;;;;;;8.38;7.10;;;4.10;99.90;;;;;;460954;256;27683;-77
2020/12/05 01:49:01;;;;;;;8.30;6.50;;;4.10;99.90;;;;;;460947;257;27561;-76
2020/12/05 01:51:02;;;;;;;7.07;6.28;;;4.10;99.90;;;;;;460925;257;27674;-75
2020/12/05 01:53:03;;;;;;;9.50;5.60;;;4.10;99.90;;;;;;460970;257;27478;-76
2020/12/05 01:55:04;;;;;;;7.68;5.68;;;4.10;99.90;;;;;;460969;257;27592;-76
2020/12/05 01:57:06;;;;;;;8.30;6.35;;;4.20;99.90;;;;;;461014;257;27623;-76
2020/12/05 01:59:07;;;;;;;7.80;5.72;;;4.20;99.90;;;;;;461011;257;27575;-75
2020/12/05 02:01:08;;;;;;;6.25;5.60;;;4.20;99.90;;;;;;461031;257;27576;-76
2020/12/05 02:03:09;;;;;;;7.45;5.72;;;4.20;99.90;;;;;;461075;257;27515;-77
2020/12/05 02:05:11;;;;;;;6.50;5.80;;;4.30;99.90;;;;;;461104;257;27556;-76
2020/12/05 02:07:12;;;;;;;6.95;5.93;;;4.30;99.90;;;;;;461117;257;28140;-76
2020/12/05 02:09:16;;;;;;;10.15;6.70;;;4.30;99.90;;;;;;461133;257;28011;-76
2020/12/05 02:11:17;;;;;;;10.02;7.07;;;4.30;99.90;;;;;;461031;257;28092;-76
2020/12/05 02:13:18;;;;;;;10.15;6.35;;;4.30;99.90;;;;;;460959;258;28086;-76
2020/12/05 02:15:20;;;;;;;8.52;6.72;;;4.30;99.90;;;;;;460950;257;27500;-76
2020/12/05 02:17:21;;;;;;;8.45;6.05;;;4.30;99.90;;;;;;460917;257;27516;-76
2020/12/05 02:19:22;;;;;;;9.52;6.82;;;4.30;99.90;;;;;;460943;257;27715;-76
2020/12/05 02:21:23;;;;;;;9.55;7.40;;;4.30;99.90;;;;;;460889;257;27548;-75
2020/12/05 02:23:25;;;;;;;9.77;6.00;;;4.40;99.90;;;;;;460909;257;27611;-76
2020/12/05 02:25:26;;;;;;;7.03;5.90;;;4.40;99.90;;;;;;460926;257;27834;-73
2020/12/05 02:27:27;;;;;;;6.95;6.05;;;4.30;99.90;;;;;;460898;257;27603;-73
2020/12/05 02:29:28;;;;;;;8.20;6.50;;;4.30;99.90;;;;;;460893;257;27951;-75
2020/12/05 02:31:30;;;;;;;10.18;7.05;;;4.30;99.90;;;;;;460892;257;27611;-73
2020/12/05 02:33:31;;;;;;;11.82;7.50;;;4.30;99.90;;;;;;460926;257;28004;-73
2020/12/05 02:35:32;;;;;;;9.57;6.97;;;4.30;99.90;;;;;;460931;257;28105;-74
2020/12/05 02:37:34;;;;;;;9.10;7.18;;;4.30;99.90;;;;;;460911;257;29225;-73
2020/12/05 02:39:35;;;;;;;8.00;6.07;;;4.30;99.90;;;;;;460939;257;27547;-74
2020/12/05 02:41:36;;;;;;;8.45;6.12;;;4.40;99.90;;;;;;460911;257;27492;-73
2020/12/05 02:43:37;;;;;;;9.30;7.00;;;4.30;99.90;;;;;;460931;257;27685;-73
2020/12/05 02:45:39;;;;;;;9.63;7.22;;;4.30;99.90;;;;;;460918;257;27635;-73
2020/12/05 02:47:40;;;;;;;9.57;7.65;;;4.40;99.90;;;;;;460890;258;27587;-73
2020/12/05 02:49:41;;;;;;;11.73;8.48;;;4.30;99.90;;;;;;460949;257;27980;-74
2020/12/05 02:51:42;;;;;;;8.70;6.95;;;4.30;99.90;;;;;;460893;257;27856;-73
2020/12/05 02:53:43;;;;;;;8.70;7.10;;;4.40;99.90;;;;;;460938;257;27707;-73
2020/12/05 02:55:45;;;;;;;9.73;6.80;;;4.40;99.90;;;;;;460924;257;27599;-73
2020/12/05 02:57:46;;;;;;;8.70;6.80;;;4.40;99.90;;;;;;460907;257;28164;-73
2020/12/05 02:59:47;;;;;;;8.07;6.80;;;4.40;99.90;;;;;;460934;257;28077;-73
2020/12/05 03:01:48;;;;;;;8.65;6.37;;;4.40;99.90;;;;;;460837;257;28055;-73
2020/12/05 03:03:50;;;;;;;9.55;6.60;;;4.40;99.90;;;;;;460951;257;27995;-74
2020/12/05 03:05:51;;;;;;;9.13;7.18;;;4.40;99.90;;;;;;460952;257;27620;-73
2020/12/05 03:07:52;;;;;;;9.00;6.25;;;4.40;99.90;;;;;;460941;257;27691;-73
2020/12/05 03:09:53;;;;;;;9.57;6.97;;;4.40;99.90;;;;;;460958;257;27520;-73
2020/12/05 03:11:55;;;;;;;8.15;6.82;;;4.40;99.90;;;;;;460905;257;27622;-74
2020/12/05 03:13:56;;;;;;;9.05;6.97;;;4.30;99.90;;;;;;460943;257;27521;-73
2020/12/05 03:15:57;;;;;;;8.68;6.70;;;4.40;99.90;;;;;;460938;257;27515;-73
2020/12/05 03:17:58;;;;;;;8.55;6.70;;;4.40;99.90;;;;;;461101;257;27615;-75
2020/12/05 03:20:00;;;;;;;9.70;7.47;;;4.40;99.90;;;;;;461116;258;27976;-73
2020/12/05 03:22:01;;;;;;;9.95;6.80;;;4.40;99.90;;;;;;461120;257;27699;-74
2020/12/05 03:24:02;;;;;;;8.07;6.90;;;4.30;99.90;;;;;;461149;257;27558;-73
2020/12/05 03:26:03;;;;;;;12.50;8.15;;;4.40;99.90;;;;;;461064;257;28099;-73
2020/12/05 03:28:05;;;;;;;12.40;7.35;;;4.30;99.90;;;;;;461028;257;28132;-74
2020/12/05 03:30:06;;;;;;;8.50;6.87;;;4.30;99.90;;;;;;460887;257;28084;-73
2020/12/05 03:32:15;;;;;;;11.18;7.12;;;4.30;99.90;;;;;;460813;257;27619;-74
2020/12/05 03:34:11;;;;;;;12.05;7.45;;;4.30;99.90;;;;;;460407;258;27631;-76
2020/12/05 03:36:12;;;;;;;10.90;7.12;;;4.40;99.90;;;;;;460903;257;27627;-75
2020/12/05 03:38:14;;;;;;;9.85;7.75;;;4.40;99.90;;;;;;460964;257;27595;-75
2020/12/05 03:40:15;;;;;;;10.10;7.78;;;4.30;99.90;;;;;;460892;257;27619;-77
2020/12/05 03:42:16;;;;;;;9.80;7.37;;;4.30;99.90;;;;;;460941;257;27603;-76
2020/12/05 03:44:18;;;;;;;9.35;7.10;;;4.40;99.90;;;;;;460964;257;27676;-76
2020/12/05 03:46:19;;;;;;;10.00;7.37;;;4.40;99.90;;;;;;460968;257;27555;-75
2020/12/05 03:48:20;;;;;;;9.85;7.43;;;4.40;99.90;;;;;;460970;257;27615;-76
2020/12/05 03:50:21;;;;;;;10.52;7.60;;;4.40;99.90;;;;;;460925;257;28040;-75
2020/12/05 03:52:22;;;;;;;9.82;7.97;;;4.40;99.90;;;;;;460957;257;28122;-75
2020/12/05 03:54:24;;;;;;;11.77;7.87;;;4.40;99.90;;;;;;460976;257;28038;-76
2020/12/05 03:56:25;;;;;;;8.88;7.40;;;4.30;99.90;;;;;;460982;257;27545;-76
2020/12/05 03:58:26;;;;;;;10.00;7.35;;;4.30;99.90;;;;;;460947;257;27592;-75
2020/12/05 04:00:27;;;;;;;11.35;7.82;;;4.30;99.90;;;;;;460888;257;27672;-76
2020/12/05 04:02:29;;;;;;;12.02;7.95;;;4.30;99.90;;;;;;460910;257;27679;-76
2020/12/05 04:04:30;;;;;;;10.80;7.55;;;4.40;99.90;;;;;;460898;257;27516;-76
2020/12/05 04:06:31;;;;;;;8.82;6.25;;;4.30;99.90;;;;;;460943;257;27546;-76
2020/12/05 04:08:32;;;;;;;8.13;6.60;;;4.30;99.90;;;;;;460964;257;27607;-77
2020/12/05 04:10:34;;;;;;;8.27;6.55;;;4.30;99.90;;;;;;460905;257;27612;-76
2020/12/05 04:12:35;;;;;;;8.18;6.60;;;4.30;99.90;;;;;;460941;257;29013;-76
2020/12/05 04:14:36;;;;;;;8.98;7.05;;;4.30;99.90;;;;;;460935;257;28112;-75
2020/12/05 04:16:37;;;;;;;9.50;6.65;;;4.40;99.90;;;;;;460978;257;28142;-76
2020/12/05 04:18:39;;;;;;;12.20;7.35;;;4.40;99.90;;;;;;460975;257;27616;-76
2020/12/05 04:20:40;;;;;;;15.38;7.90;;;4.40;99.90;;;;;;460889;257;27507;-75
2020/12/05 04:22:41;;;;;;;9.60;6.70;;;4.40;99.90;;;;;;460955;257;27508;-76
2020/12/05 04:24:42;;;;;;;10.88;6.20;;;4.30;99.90;;;;;;460978;257;27639;-75
2020/12/05 04:26:44;;;;;;;6.60;5.70;;;4.30;99.90;;;;;;460942;257;27587;-75
2020/12/05 04:28:45;;;;;;;6.87;5.90;;;4.20;99.90;;;;;;460945;257;27483;-75
2020/12/05 04:30:46;;;;;;;7.47;5.80;;;4.20;99.90;;;;;;461041;256;27496;-76
2020/12/05 04:32:47;;;;;;;7.28;6.03;;;4.30;99.90;;;;;;461157;257;27596;-76
2020/12/05 04:34:49;;;;;;;10.05;5.50;;;4.30;99.90;;;;;;461130;257;27545;-76
2020/12/05 04:36:50;;;;;;;10.63;5.03;;;4.30;99.90;;;;;;461132;257;28250;-76
2020/12/05 04:38:51;;;;;;;7.53;5.55;;;4.20;99.90;;;;;;461071;257;28030;-76
2020/12/05 04:40:52;;;;;;;7.10;6.15;;;4.30;99.90;;;;;;460944;257;27983;-75
2020/12/05 04:42:54;;;;;;;6.70;5.25;;;4.30;99.90;;;;;;460982;257;27590;-76
2020/12/05 04:44:55;;;;;;;6.82;5.70;;;4.30;99.90;;;;;;460966;257;27558;-75
2020/12/05 04:46:56;;;;;;;6.47;5.00;;;4.30;99.90;;;;;;460987;257;27608;-76
2020/12/05 04:48:57;;;;;;;6.10;5.50;;;4.30;99.90;;;;;;460954;257;27586;-73
2020/12/05 04:50:59;;;;;;;7.30;5.53;;;4.30;99.90;;;;;;460910;257;27683;-76
2020/12/05 04:53:00;;;;;;;5.37;4.87;;;4.40;99.90;;;;;;460941;257;27715;-75
2020/12/05 04:55:01;;;;;;;5.68;4.80;;;4.40;99.90;;;;;;460960;258;27596;-76
2020/12/05 04:57:02;;;;;;;7.55;5.65;;;4.40;99.90;;;;;;460973;257;27506;-76
2020/12/05 04:59:04;;;;;;;5.95;4.80;;;4.40;99.90;;;;;;460938;257;27706;-77
2020/12/05 05:01:05;;;;;;;6.85;5.50;;;4.40;99.90;;;;;;460865;257;27580;-75
2020/12/05 05:03:06;;;;;;;5.70;4.55;;;4.40;99.90;;;;;;460869;257;28203;-76
2020/12/05 05:05:07;;;;;;;7.05;4.90;;;4.30;99.90;;;;;;460860;257;27948;-76
2020/12/05 05:07:09;;;;;;;5.55;4.40;;;4.30;99.90;;;;;;460855;257;29173;-76
2020/12/05 05:09:10;;;;;;;4.75;4.28;;;4.30;99.90;;;;;;460825;257;28110;-76
2020/12/05 05:11:12;;;;;;;5.03;4.03;;;4.30;99.90;;;;;;460718;257;27618;-76
2020/12/05 05:13:18;;;;;;;4.28;3.83;;;4.30;99.90;;;;;;460770;257;27510;-76
2020/12/05 05:15:14;;;;;;;4.37;3.97;;;4.30;99.90;;;;;;460865;258;27464;-76
2020/12/05 05:17:15;;;;;;;4.55;3.97;;;4.30;99.90;;;;;;461072;257;27690;-75
2020/12/05 05:19:16;;;;;;;4.68;4.00;;;4.30;99.90;;;;;;460951;257;27683;-76
2020/12/05 05:21:17;;;;;;;4.47;4.05;;;4.30;99.90;;;;;;460855;257;27504;-76
2020/12/05 05:23:19;;;;;;;4.53;4.12;;;4.30;99.90;;;;;;460916;257;27595;-75
2020/12/05 05:25:21;;;;;;;9.40;4.82;;;4.30;99.90;;;;;;460971;257;27852;-78
2020/12/05 05:27:21;;;;;;;4.68;4.07;;;4.40;99.90;;;;;;460912;257;27464;-76
2020/12/05 05:29:23;;;;;;;4.65;4.00;;;4.30;99.90;;;;;;460883;257;27523;-76
2020/12/05 05:31:43;;;;;;;4.22;3.80;;;4.30;99.90;;;;;;460893;257;27960;-75
2020/12/05 05:33:31;;;;;;;4.35;3.92;;;4.30;99.90;;;;;;459963;258;27570;-76
2020/12/05 05:35:32;;;;;;;4.72;4.30;;;4.30;99.90;;;;;;460941;257;27704;-76
2020/12/05 05:37:33;;;;;;;5.85;5.28;;;4.40;99.90;;;;;;460940;257;27461;-76
2020/12/05 05:39:35;;;;;;;4.30;3.90;;;4.30;99.90;;;;;;460910;257;27500;-76
2020/12/05 05:41:37;;;;;;;4.47;4.03;;;4.30;99.90;;;;;;461018;257;27611;-77
2020/12/05 05:43:37;;;;;;;5.10;4.55;;;4.40;99.90;;;;;;461032;258;27556;-76
2020/12/05 05:45:39;;;;;;;5.22;4.00;;;4.40;99.90;;;;;;461142;257;27662;-76
2020/12/05 05:47:40;;;;;;;4.45;4.05;;;4.40;99.90;;;;;;461123;257;27587;-75
2020/12/05 05:49:41;;;;;;;4.80;4.15;;;4.40;99.90;;;;;;461088;257;27627;-76
2020/12/05 05:51:42;;;;;;;6.37;4.95;;;4.40;99.90;;;;;;461050;257;28099;-76
2020/12/05 05:53:43;;;;;;;5.65;4.57;;;4.40;99.90;;;;;;461103;257;28091;-75
2020/12/05 05:55:46;;;;;;;4.57;4.18;;;4.30;99.90;;;;;;461053;258;28192;-76
2020/12/05 05:57:46;;;;;;;4.80;4.40;;;4.40;99.90;;;;;;460933;258;28014;-75
2020/12/05 05:59:47;;;;;;;5.22;4.72;;;4.40;99.90;;;;;;460945;257;27595;-76
2020/12/05 06:01:48;;;;;;;4.43;4.00;;;4.40;99.90;;;;;;460925;257;27584;-77
2020/12/05 06:03:50;;;;;;;6.10;4.37;;;4.40;99.90;;;;;;460979;257;27698;-75
2020/12/05 06:05:51;;;;;;;4.50;4.10;;;4.40;99.90;;;;;;460979;257;27649;-75
2020/12/05 06:07:52;;;;;;;6.10;4.57;;;4.40;99.90;;;;;;460919;257;27496;-76
2020/12/05 06:09:53;;;;;;;5.95;5.10;;;4.40;99.90;;;;;;460912;258;27629;-76
2020/12/05 06:11:55;;;;;;;5.07;4.57;;;4.40;99.90;;;;;;460940;257;27950;-76
2020/12/05 06:13:56;;;;;;;4.60;4.20;;;4.40;99.90;;;;;;460783;257;27583;-76
2020/12/05 06:15:57;;;;;;;6.00;4.40;;;4.40;99.90;;;;;;460942;257;27639;-75
2020/12/05 06:17:58;;;;;;;5.00;4.47;;;4.40;99.90;;;;;;460931;257;28122;-76
2020/12/05 06:20:00;;;;;;;5.30;4.70;;;4.40;99.90;;;;;;460906;257;28110;-75
2020/12/05 06:22:01;;;;;;;7.12;4.72;;;4.40;99.90;;;;;;460866;257;28120;-75
2020/12/05 06:24:02;;;;;;;5.10;4.60;;;4.40;99.90;;;;;;460646;258;28103;-76
2020/12/05 06:26:04;;;;;;;4.97;4.47;;;4.40;99.90;;;;;;460956;257;27596;-77
2020/12/05 06:28:05;;;;;;;8.63;4.75;;;4.40;99.90;;;;;;460955;257;27613;-75
2020/12/05 06:30:06;;;;;;;6.28;5.40;;;4.40;99.90;;;;;;460899;257;27608;-76
2020/12/05 06:32:07;;;;;;;6.07;4.97;;;4.40;99.90;;;;;;460954;257;27630;-74
2020/12/05 06:34:09;;;;;;;5.30;4.80;;;4.40;99.90;;;;;;460976;257;27590;-76
2020/12/05 06:36:10;;;;;;;6.65;5.47;;;4.40;99.90;;;;;;460991;257;27841;-78
2020/12/05 06:38:11;;;;;;;6.72;5.22;;;4.40;99.90;;;;;;460986;257;27619;-76
2020/12/05 06:40:12;;;;;;;9.02;5.97;;;4.30;99.90;;;;;;460929;257;27605;-76
2020/12/05 06:42:14;;;;;;;7.50;5.90;;;4.30;99.90;;;;;;460933;257;27619;-76
2020/12/05 06:44:15;;;;;;;9.10;6.50;;;4.30;99.90;;;;;;460960;257;28178;-76
2020/12/05 06:46:16;;;;;;;7.53;6.05;;;4.30;99.90;;;;;;460937;257;29259;-76
2020/12/05 06:48:17;;;;;;;8.90;6.57;;;4.30;99.90;;;;;;460942;257;28035;-74
2020/12/05 06:50:19;;;;;;;9.18;6.75;;;4.40;99.90;;;;;;460858;257;27604;-74
2020/12/05 06:52:20;;;;;;;8.00;5.70;;;4.40;99.90;;;;;;460942;257;27718;-74
2020/12/05 06:54:21;;;;;;;10.70;6.60;;;4.40;99.90;;;;;;460978;257;27677;-76
2020/12/05 06:56:22;;;;;;;10.40;6.22;;;4.30;99.90;;;;;;460982;257;27594;-73
2020/12/05 06:58:24;;;;;;;7.57;5.65;;;4.30;99.90;;;;;;460960;257;27711;-74
2020/12/05 07:00:25;;;;;;;8.23;6.10;;;4.30;99.90;;;;;;460910;257;27631;-75
2020/12/05 07:02:26;;;;;;;6.60;5.80;;;4.30;99.90;;;;;;460933;257;27552;-73
2020/12/05 07:04:27;;;;;;;6.68;5.72;;;4.30;99.90;;;;;;460979;257;27692;-74
2020/12/05 07:06:29;;;;;;;7.62;5.78;;;4.30;99.90;;;;;;460972;257;27492;-74
2020/12/05 07:08:30;;;;;;;6.85;5.20;;;4.30;99.90;;;;;;460951;257;28091;-73
2020/12/05 07:10:31;;;;;;;9.15;5.95;;;4.30;99.90;;;;;;460893;257;28186;-74
2020/12/05 07:12:32;;;;;;;7.45;6.05;;;4.40;99.90;;;;;;460974;257;29104;-74
2020/12/05 07:14:34;;;;;;;7.30;5.35;;;4.40;99.90;;;;;;460949;257;27707;-73
2020/12/05 07:16:35;;;;;;;6.75;5.55;;;4.40;99.90;;;;;;460983;257;27488;-74
2020/12/05 07:18:36;;;;;;;7.40;5.12;;;4.40;99.90;;;;;;461118;257;27504;-74
2020/12/05 07:20:37;;;;;;;6.20;5.30;;;4.40;99.90;;;;;;461048;257;27715;-76
2020/12/05 07:22:39;;;;;;;6.30;5.25;;;4.40;99.90;;;;;;461078;257;27572;-74
2020/12/05 07:24:40;;;;;;;5.72;4.95;;;4.40;99.90;;;;;;461024;257;27658;-74
2020/12/05 07:26:41;;;;;;;7.68;5.50;;;4.40;99.90;;;;;;460854;257;27476;-74
2020/12/05 07:28:42;;;;;;;9.35;6.07;;;4.40;99.90;;;;;;460784;257;27623;-74
2020/12/05 07:30:44;;;;;;;6.90;6.00;;;4.40;99.90;;;;;;460773;257;28052;-75
2020/12/05 07:32:45;;;;;;;8.13;6.18;;;4.40;99.90;;;;;;460858;257;27631;-74
2020/12/05 07:34:46;;;;;;;11.32;7.50;;;4.40;99.90;;;;;;460942;257;27596;-73
2020/12/05 07:36:47;;;;;;;6.00;5.37;;;4.40;99.90;;;;;;460954;257;28049;-74
2020/12/05 07:38:49;;;;;;;7.97;5.53;;;4.40;99.90;;;;;;460956;257;28059;-76
2020/12/05 07:40:50;;;;;;;8.57;6.37;;;4.40;99.90;;;;;;460851;257;28186;-76
2020/12/05 07:42:51;;;;;;;6.70;5.30;;;4.40;99.90;;;;;;460950;257;27572;-74
2020/12/05 07:44:52;;;;;;;7.47;5.72;;;4.40;99.90;;;;;;460950;257;27672;-75
2020/12/05 07:46:54;;;;;;;5.22;4.72;;;4.40;99.90;;;;;;460902;258;27698;-75
2020/12/05 07:48:55;;;;;;;7.82;5.95;;;4.40;99.90;;;;;;460922;257;27592;-74
2020/12/05 07:50:56;;;;;;;6.60;5.25;;;4.40;99.90;;;;;;460858;256;27596;-73
2020/12/05 07:52:57;;;;;;;6.00;4.82;;;4.50;99.90;;;;;;460864;257;27600;-73
2020/12/05 07:54:59;;;;;;;6.97;5.20;;;4.50;99.90;;;;;;461318;257;27576;-74
2020/12/05 07:57:00;;;;;;;6.50;5.32;;;4.60;99.90;;;;;;461331;257;27600;-74
2020/12/05 07:59:02;;;;;;;8.30;6.15;;;4.50;99.90;;;;;;461335;257;27565;-74
2020/12/05 08:01:02;;;;;;;6.70;5.37;;;4.50;99.90;;;;;;461239;257;28052;-74
2020/12/05 08:03:04;;;;;;;7.60;5.30;;;4.50;99.90;;;;;;461332;257;28210;-74
2020/12/05 08:05:05;;;;;;;7.43;5.70;;;4.60;99.90;;;;;;461162;257;28198;-76
2020/12/05 08:07:06;;;;;;;7.60;5.97;;;4.60;99.90;;;;;;460901;257;28065;-75
2020/12/05 08:09:07;;;;;;;8.68;5.72;;;4.60;99.90;;;;;;460870;257;27591;-76
2020/12/05 08:11:09;;;;;;;10.60;7.10;;;4.60;99.90;;;;;;460803;257;27532;-75
2020/12/05 08:13:10;;;;;;;8.15;6.47;;;4.50;99.90;;;;;;460917;257;27650;-77
2020/12/05 08:15:11;;;;;;;9.63;6.60;;;4.60;99.90;;;;;;460916;257;27576;-75
2020/12/05 08:17:12;;;;;;;8.70;6.72;;;4.60;99.90;;;;;;461047;257;27616;-74
2020/12/05 08:19:14;;;;;;;7.60;6.40;;;4.60;99.90;;;;;;461079;257;27855;-76
2020/12/05 08:21:15;;;;;;;8.27;6.55;;;4.50;99.90;;;;;;461060;257;27465;-74
2020/12/05 08:23:16;;;;;;;9.73;6.18;;;4.50;99.90;;;;;;461180;257;27684;-76
2020/12/05 08:25:17;;;;;;;14.13;8.52;;;4.40;99.90;;;;;;461200;257;27582;-77
2020/12/05 08:27:19;;;;;;;14.43;9.98;;;4.40;99.90;;;;;;461219;257;28163;-76
2020/12/05 08:29:22;;;;;;;14.98;10.00;;;4.40;99.90;;;;;;461219;257;28271;-75
2020/12/05 08:31:21;;;;;;;6.68;6.00;;;4.50;99.90;;;;;;461069;257;27557;-74
2020/12/05 08:33:22;;;;;;;7.60;6.12;;;4.50;99.90;;;;;;461125;257;27597;-76
2020/12/05 08:35:24;;;;;;;9.82;5.90;;;4.50;99.90;;;;;;461042;257;27625;-74
2020/12/05 08:37:25;;;;;;;6.15;5.47;;;4.60;99.90;;;;;;460965;257;27595;-75
2020/12/05 08:39:26;;;;;;;6.93;5.70;;;4.60;99.90;;;;;;461012;257;27507;-74
2020/12/05 08:41:27;;;;;;;7.10;5.43;;;4.70;99.90;;;;;;460931;257;27530;-75
2020/12/05 08:43:29;;;;;;;8.30;6.85;;;4.70;99.90;;;;;;461018;257;27977;-77
2020/12/05 08:45:30;;;;;;;7.43;5.78;;;4.70;99.90;;;;;;461006;257;27623;-75
2020/12/05 08:47:31;;;;;;;7.05;5.55;;;4.70;99.90;;;;;;460994;257;27714;-78
2020/12/05 08:49:32;;;;;;;6.40;5.12;;;4.70;99.90;;;;;;460965;257;27995;-76
2020/12/05 08:51:34;;;;;;;7.62;5.93;;;4.70;99.90;;;;;;460903;257;28113;-74
2020/12/05 08:53:35;;;;;;;7.47;6.72;;;4.70;99.90;;;;;;460965;257;28041;-75
2020/12/05 08:55:36;;;;;;;5.82;5.22;;;4.70;99.90;;;;;;460993;257;27615;-75
2020/12/05 08:57:37;;;;;;;8.20;5.03;;;4.70;99.90;;;;;;460951;257;27676;-76
2020/12/05 08:59:39;;;;;;;6.47;5.12;;;4.70;99.90;;;;;;460977;257;27616;-76
2020/12/05 09:01:40;;;;;;;6.55;5.30;;;4.70;99.90;;;;;;460858;257;27531;-75
2020/12/05 09:03:41;;;;;;;7.65;6.50;;;4.60;99.90;;;;;;460911;257;27516;-74
2020/12/05 09:05:42;;;;;;;7.00;5.87;;;4.50;99.90;;;;;;460957;257;27552;-77
2020/12/05 09:07:44;;;;;;;6.57;5.80;;;4.50;99.90;;;;;;460957;257;27507;-75
2020/12/05 09:09:45;;;;;;;5.85;5.25;;;4.60;99.90;;;;;;460946;257;27639;-73
2020/12/05 09:11:46;;;;;;;6.40;5.32;;;4.60;99.90;;;;;;460917;257;28067;-75
2020/12/05 09:13:47;;;;;;;9.10;6.20;;;4.60;99.90;;;;;;460948;257;28055;-74
2020/12/05 09:15:49;;;;;;;7.35;5.57;;;4.60;99.90;;;;;;460993;257;28170;-75
2020/12/05 09:17:50;;;;;;;9.25;6.57;;;4.60;99.90;;;;;;460877;257;27762;-75
2020/12/05 09:19:51;;;;;;;6.95;6.25;;;4.60;99.90;;;;;;460916;257;27651;-75
2020/12/05 09:21:52;;;;;;;7.45;6.18;;;4.50;99.90;;;;;;460933;257;27588;-76
2020/12/05 09:23:54;;;;;;;6.03;5.43;;;4.50;99.90;;;;;;460978;257;27555;-75
2020/12/05 09:25:55;;;;;;;6.00;5.40;;;4.50;99.90;;;;;;460980;257;27624;-76
2020/12/05 09:27:56;;;;;;;7.07;5.00;;;4.50;99.90;;;;;;470980;239;27638;-75
2020/12/05 09:29:57;;;;;;;7.37;5.70;;;4.40;99.90;;;;;;477611;249;27609;-75
2020/12/05 09:31:59;;;;;;;8.45;6.70;;;4.40;99.90;;;;;;477683;249;27648;-76
2020/12/05 09:34:00;;;;;;;7.50;5.47;;;4.40;99.90;;;;;;477733;249;27538;-75
2020/12/05 09:36:01;;;;;;;7.90;6.40;;;4.40;99.90;;;;;;477706;248;27581;-74
2020/12/05 09:38:02;;;;;;;7.57;6.20;;;4.50;99.90;;;;;;477737;249;28372;-78
2020/12/05 09:40:04;;;;;;;6.25;5.62;;;4.60;99.90;;;;;;477738;247;28052;-76
2020/12/05 09:42:05;;;;;;;6.75;5.78;;;4.70;99.90;;;;;;477818;247;28084;-76
2020/12/05 09:44:06;;;;;;;6.93;5.70;;;4.70;99.90;;;;;;477813;249;27422;-75
2020/12/05 09:46:07;;;;;;;5.53;5.03;;;4.80;99.90;;;;;;477847;249;27458;-76
2020/12/05 09:48:09;;;;;;;5.82;5.25;;;4.90;99.90;;;;;;477870;249;27464;-74
2020/12/05 09:50:10;;;;;;;8.27;4.95;;;5.00;99.90;;;;;;477829;249;27422;-78
2020/12/05 09:52:11;;;;;;;5.30;4.80;;;5.00;99.90;;;;;;477851;249;27669;-77
2020/12/05 09:54:12;;;;;;;8.50;5.68;;;5.10;99.90;;;;;;477838;249;27422;-76
2020/12/05 09:56:14;;;;;;;4.68;4.28;;;5.10;99.90;;;;;;477816;249;27477;-77
2020/12/05 09:58:15;;;;;;;5.20;4.70;;;5.10;99.90;;;;;;477800;248;27488;-77
2020/12/05 10:00:16;;;;;;;5.50;5.00;;;5.20;99.90;;;;;;477597;249;27945;-76
2020/12/05 10:02:17;;;;;;;5.35;4.85;;;5.20;99.90;;;;;;477660;249;28050;-78
2020/12/05 10:04:19;;;;;;;5.65;5.12;;;5.10;99.90;;;;;;477650;249;28888;-76
2020/12/05 10:06:20;;;;;;;8.15;5.60;;;5.00;99.90;;;;;;477653;249;27467;-76
2020/12/05 10:08:21;;;;;;;6.45;5.32;;;4.90;99.90;;;;;;477607;247;27545;-75
2020/12/05 10:10:23;;;;;;;6.57;5.30;;;4.90;99.90;;;;;;477632;249;27540;-73
2020/12/05 10:12:24;;;;;;;7.15;5.47;;;5.10;99.90;;;;;;477714;244;27458;-75
2020/12/05 10:14:25;;;;;;;6.40;5.65;;;5.10;99.90;;;;;;477679;248;27933;-75
2020/12/05 10:16:26;;;;;;;6.95;5.20;;;5.10;99.90;;;;;;477678;249;27531;-75
2020/12/05 10:18:27;;;;;;;6.15;5.45;;;5.30;99.90;;;;;;477707;249;27474;-77
2020/12/05 10:20:29;;;;;;;6.28;5.50;;;5.20;99.90;;;;;;477600;249;28037;-75
2020/12/05 10:22:30;;;;;;;7.32;5.82;;;5.30;99.90;;;;;;477706;249;27976;-78
2020/12/05 10:24:31;;;;;;;5.68;4.80;;;5.20;99.90;;;;;;477741;249;27493;-77
2020/12/05 10:26:32;;;;;;;5.15;4.65;;;5.20;99.90;;;;;;477649;244;27469;-76
2020/12/05 10:28:34;;;;;;;4.68;4.28;;;5.20;99.90;;;;;;477670;244;27486;-76
2020/12/05 10:30:35;;;;;;;4.62;4.20;;;5.20;99.90;;;;;;477647;249;27651;-76
2020/12/05 10:32:37;;;;;;;4.70;4.20;;;5.30;99.90;;;;;;477713;249;27807;-78
2020/12/05 10:34:38;;;;;;;5.80;5.20;;;5.10;99.90;;;;;;477541;249;27570;-77
2020/12/05 10:36:39;;;;;;;9.70;8.02;;;5.10;99.90;;;;;;477625;249;28151;-74
2020/12/05 10:38:40;;;;;;;7.90;6.62;;;5.20;99.90;;;;;;477564;249;27953;-74